sensor_id;sensor_type;location;lat;lon;timestamp;P1;durP1;ratioP1;P2;durP2;ratioP2
35612;SDS011;22054;51.646;7.078;2023-10-08T00:02:23;0.00;;;0.00;;
35612;SDS011;22054;51.646;7.078;2023-10-08T00:04:52;0.00;;;0.00;;
35612;SDS011;22054;51.646;7.078;2023-10-08T00:07:21;0.00;;;0.00;;
35612;SDS011;22054;51.646;7.078;2023-10-08T00:09:49;0.00;;;0.00;;
35612;SDS011;22054;51.646;7.078;2023-10-08T00:12:18;0.00;;;0.00;;
35612;SDS011;22054;51.646;7.078;2023-10-08T00:14:45;0.00;;;0.00;;
35612;SDS011;22054;51.646;7.078;2023-10-08T00:17:14;0.00;;;0.00;;
35612;SDS011;22054;51.646;7.078;2023-10-08T00:19:42;0.00;;;0.00;;
35612;SDS011;22054;51.646;7.078;2023-10-08T00:22:11;0.00;;;0.00;;
35612;SDS011;22054;51.646;7.078;2023-10-08T00:24:39;0.00;;;0.00;;
35612;SDS011;22054;51.646;7.078;2023-10-08T00:27:08;0.00;;;0.00;;
35612;SDS011;22054;51.646;7.078;2023-10-08T00:29:34;0.00;;;0.00;;
35612;SDS011;22054;51.646;7.078;2023-10-08T00:32:05;0.00;;;0.00;;
35612;SDS011;22054;51.646;7.078;2023-10-08T00:34:36;0.00;;;0.00;;
35612;SDS011;22054;51.646;7.078;2023-10-08T00:37:07;0.00;;;0.00;;
35612;SDS011;22054;51.646;7.078;2023-10-08T00:39:40;0.00;;;0.00;;
35612;SDS011;22054;51.646;7.078;2023-10-08T00:42:08;0.00;;;0.00;;
35612;SDS011;22054;51.646;7.078;2023-10-08T00:44:34;0.00;;;0.00;;
35612;SDS011;22054;51.646;7.078;2023-10-08T00:47:12;0.00;;;0.00;;
35612;SDS011;22054;51.646;7.078;2023-10-08T00:49:39;0.00;;;0.00;;
35612;SDS011;22054;51.646;7.078;2023-10-08T00:52:04;0.00;;;0.00;;
35612;SDS011;22054;51.646;7.078;2023-10-08T00:54:38;0.00;;;0.00;;
35612;SDS011;22054;51.646;7.078;2023-10-08T00:57:27;0.00;;;0.00;;
35612;SDS011;22054;51.646;7.078;2023-10-08T00:59:55;0.00;;;0.00;;
35612;SDS011;22054;51.646;7.078;2023-10-08T01:02:27;0.00;;;0.00;;
35612;SDS011;22054;51.646;7.078;2023-10-08T01:05:10;0.00;;;0.00;;
35612;SDS011;22054;51.646;7.078;2023-10-08T01:07:41;0.00;;;0.00;;
35612;SDS011;22054;51.646;7.078;2023-10-08T01:10:14;0.00;;;0.00;;
35612;SDS011;22054;51.646;7.078;2023-10-08T01:12:44;0.00;;;0.00;;
35612;SDS011;22054;51.646;7.078;2023-10-08T01:15:28;0.00;;;0.00;;
35612;SDS011;22054;51.646;7.078;2023-10-08T01:17:55;0.00;;;0.00;;
35612;SDS011;22054;51.646;7.078;2023-10-08T01:20:29;0.00;;;0.00;;
35612;SDS011;22054;51.646;7.078;2023-10-08T01:23:03;0.00;;;0.00;;
35612;SDS011;22054;51.646;7.078;2023-10-08T01:25:33;0.00;;;0.00;;
35612;SDS011;22054;51.646;7.078;2023-10-08T01:27:59;0.00;;;0.00;;
35612;SDS011;22054;51.646;7.078;2023-10-08T01:30:34;0.00;;;0.00;;
35612;SDS011;22054;51.646;7.078;2023-10-08T01:33:06;0.00;;;0.00;;
35612;SDS011;22054;51.646;7.078;2023-10-08T01:35:37;0.00;;;0.00;;
35612;SDS011;22054;51.646;7.078;2023-10-08T01:38:04;0.00;;;0.00;;
35612;SDS011;22054;51.646;7.078;2023-10-08T01:40:31;0.00;;;0.00;;
35612;SDS011;22054;51.646;7.078;2023-10-08T01:42:57;0.00;;;0.00;;
35612;SDS011;22054;51.646;7.078;2023-10-08T01:45:25;0.00;;;0.00;;
35612;SDS011;22054;51.646;7.078;2023-10-08T01:47:51;0.00;;;0.00;;
35612;SDS011;22054;51.646;7.078;2023-10-08T01:50:19;0.00;;;0.00;;
35612;SDS011;22054;51.646;7.078;2023-10-08T01:52:49;0.00;;;0.00;;
35612;SDS011;22054;51.646;7.078;2023-10-08T01:55:17;0.10;;;0.10;;
35612;SDS011;22054;51.646;7.078;2023-10-08T01:57:45;0.00;;;0.00;;
35612;SDS011;22054;51.646;7.078;2023-10-08T02:00:11;0.00;;;0.00;;
35612;SDS011;22054;51.646;7.078;2023-10-08T02:02:39;0.00;;;0.00;;
35612;SDS011;22054;51.646;7.078;2023-10-08T02:05:08;0.05;;;0.05;;
35612;SDS011;22054;51.646;7.078;2023-10-08T02:07:33;0.00;;;0.00;;
35612;SDS011;22054;51.646;7.078;2023-10-08T02:09:59;0.05;;;0.05;;
35612;SDS011;22054;51.646;7.078;2023-10-08T02:12:25;0.05;;;0.05;;
35612;SDS011;22054;51.646;7.078;2023-10-08T02:14:50;0.10;;;0.10;;
35612;SDS011;22054;51.646;7.078;2023-10-08T02:17:16;0.20;;;0.20;;
35612;SDS011;22054;51.646;7.078;2023-10-08T02:19:42;0.20;;;0.20;;
35612;SDS011;22054;51.646;7.078;2023-10-08T02:22:08;0.17;;;0.17;;
35612;SDS011;22054;51.646;7.078;2023-10-08T02:24:34;0.10;;;0.10;;
35612;SDS011;22054;51.646;7.078;2023-10-08T02:27:01;0.20;;;0.20;;
35612;SDS011;22054;51.646;7.078;2023-10-08T02:29:28;0.15;;;0.15;;
35612;SDS011;22054;51.646;7.078;2023-10-08T02:31:56;0.20;;;0.20;;
35612;SDS011;22054;51.646;7.078;2023-10-08T02:34:22;0.20;;;0.20;;
35612;SDS011;22054;51.646;7.078;2023-10-08T02:36:48;0.30;;;0.30;;
35612;SDS011;22054;51.646;7.078;2023-10-08T02:39:14;0.40;;;0.40;;
35612;SDS011;22054;51.646;7.078;2023-10-08T02:41:52;0.60;;;0.60;;
35612;SDS011;22054;51.646;7.078;2023-10-08T02:44:21;0.50;;;0.50;;
35612;SDS011;22054;51.646;7.078;2023-10-08T02:46:48;0.68;;;0.68;;
35612;SDS011;22054;51.646;7.078;2023-10-08T02:49:14;0.68;;;0.68;;
35612;SDS011;22054;51.646;7.078;2023-10-08T02:51:45;0.80;;;0.80;;
35612;SDS011;22054;51.646;7.078;2023-10-08T02:54:15;0.80;;;0.80;;
35612;SDS011;22054;51.646;7.078;2023-10-08T02:56:48;0.30;;;0.30;;
35612;SDS011;22054;51.646;7.078;2023-10-08T02:59:28;0.40;;;0.40;;
35612;SDS011;22054;51.646;7.078;2023-10-08T03:02:13;0.70;;;0.70;;
35612;SDS011;22054;51.646;7.078;2023-10-08T03:04:43;0.50;;;0.50;;
35612;SDS011;22054;51.646;7.078;2023-10-08T03:07:16;0.45;;;0.45;;
35612;SDS011;22054;51.646;7.078;2023-10-08T03:09:57;0.45;;;0.45;;
35612;SDS011;22054;51.646;7.078;2023-10-08T03:12:44;0.50;;;0.50;;
35612;SDS011;22054;51.646;7.078;2023-10-08T03:15:12;0.52;;;0.52;;
35612;SDS011;22054;51.646;7.078;2023-10-08T03:17:52;0.40;;;0.40;;
35612;SDS011;22054;51.646;7.078;2023-10-08T03:20:19;0.30;;;0.30;;
35612;SDS011;22054;51.646;7.078;2023-10-08T03:23:04;0.40;;;0.40;;
35612;SDS011;22054;51.646;7.078;2023-10-08T03:25:38;0.50;;;0.50;;
35612;SDS011;22054;51.646;7.078;2023-10-08T03:28:09;0.50;;;0.50;;
35612;SDS011;22054;51.646;7.078;2023-10-08T03:30:38;0.50;;;0.50;;
35612;SDS011;22054;51.646;7.078;2023-10-08T03:33:16;0.50;;;0.50;;
35612;SDS011;22054;51.646;7.078;2023-10-08T03:35:49;0.43;;;0.43;;
35612;SDS011;22054;51.646;7.078;2023-10-08T03:38:20;0.50;;;0.50;;
35612;SDS011;22054;51.646;7.078;2023-10-08T03:40:53;0.60;;;0.60;;
35612;SDS011;22054;51.646;7.078;2023-10-08T03:43:27;0.50;;;0.50;;
35612;SDS011;22054;51.646;7.078;2023-10-08T03:46:00;0.40;;;0.40;;
35612;SDS011;22054;51.646;7.078;2023-10-08T03:48:31;0.40;;;0.40;;
35612;SDS011;22054;51.646;7.078;2023-10-08T03:51:02;0.60;;;0.60;;
35612;SDS011;22054;51.646;7.078;2023-10-08T03:53:37;0.80;;;0.80;;
35612;SDS011;22054;51.646;7.078;2023-10-08T03:56:26;0.50;;;0.50;;
35612;SDS011;22054;51.646;7.078;2023-10-08T03:58:56;1.08;;;1.08;;
35612;SDS011;22054;51.646;7.078;2023-10-08T04:01:25;0.75;;;0.75;;
35612;SDS011;22054;51.646;7.078;2023-10-08T04:03:55;1.00;;;1.00;;
35612;SDS011;22054;51.646;7.078;2023-10-08T04:06:26;0.70;;;0.70;;
35612;SDS011;22054;51.646;7.078;2023-10-08T04:09:03;0.80;;;0.80;;
35612;SDS011;22054;51.646;7.078;2023-10-08T04:11:34;1.20;;;1.20;;
35612;SDS011;22054;51.646;7.078;2023-10-08T04:14:02;1.13;;;1.13;;
35612;SDS011;22054;51.646;7.078;2023-10-08T04:16:28;2.33;;;2.22;;
35612;SDS011;22054;51.646;7.078;2023-10-08T04:18:56;2.53;;;2.42;;
35612;SDS011;22054;51.646;7.078;2023-10-08T04:21:26;2.05;;;1.95;;
35612;SDS011;22054;51.646;7.078;2023-10-08T04:23:54;2.40;;;2.30;;
35612;SDS011;22054;51.646;7.078;2023-10-08T04:26:22;1.67;;;1.67;;
35612;SDS011;22054;51.646;7.078;2023-10-08T04:28:50;2.40;;;2.30;;
35612;SDS011;22054;51.646;7.078;2023-10-08T04:31:22;1.60;;;1.60;;
35612;SDS011;22054;51.646;7.078;2023-10-08T04:34:04;3.38;;;3.28;;
35612;SDS011;22054;51.646;7.078;2023-10-08T04:36:40;2.60;;;2.50;;
35612;SDS011;22054;51.646;7.078;2023-10-08T04:39:17;1.10;;;1.10;;
35612;SDS011;22054;51.646;7.078;2023-10-08T04:41:46;1.00;;;1.00;;
35612;SDS011;22054;51.646;7.078;2023-10-08T04:44:19;0.90;;;0.90;;
35612;SDS011;22054;51.646;7.078;2023-10-08T04:46:46;1.00;;;1.00;;
35612;SDS011;22054;51.646;7.078;2023-10-08T04:49:15;0.85;;;0.85;;
35612;SDS011;22054;51.646;7.078;2023-10-08T04:51:58;0.80;;;0.80;;
35612;SDS011;22054;51.646;7.078;2023-10-08T04:54:41;1.20;;;1.20;;
35612;SDS011;22054;51.646;7.078;2023-10-08T04:57:16;1.73;;;1.73;;
35612;SDS011;22054;51.646;7.078;2023-10-08T04:59:47;2.10;;;2.00;;
35612;SDS011;22054;51.646;7.078;2023-10-08T05:02:15;2.10;;;2.00;;
35612;SDS011;22054;51.646;7.078;2023-10-08T05:04:45;1.25;;;1.25;;
35612;SDS011;22054;51.646;7.078;2023-10-08T05:07:35;0.93;;;0.93;;
35612;SDS011;22054;51.646;7.078;2023-10-08T05:10:09;0.95;;;0.95;;
35612;SDS011;22054;51.646;7.078;2023-10-08T05:12:56;0.90;;;0.90;;
35612;SDS011;22054;51.646;7.078;2023-10-08T05:15:28;0.70;;;0.70;;
35612;SDS011;22054;51.646;7.078;2023-10-08T05:18:06;0.90;;;0.90;;
35612;SDS011;22054;51.646;7.078;2023-10-08T05:20:48;1.00;;;1.00;;
35612;SDS011;22054;51.646;7.078;2023-10-08T05:23:16;1.30;;;1.30;;
35612;SDS011;22054;51.646;7.078;2023-10-08T05:25:57;1.20;;;1.20;;
35612;SDS011;22054;51.646;7.078;2023-10-08T05:28:34;1.15;;;1.15;;
35612;SDS011;22054;51.646;7.078;2023-10-08T05:31:13;0.80;;;0.80;;
35612;SDS011;22054;51.646;7.078;2023-10-08T05:33:40;0.80;;;0.80;;
35612;SDS011;22054;51.646;7.078;2023-10-08T05:36:39;2.17;;;2.08;;
35612;SDS011;22054;51.646;7.078;2023-10-08T05:39:29;1.10;;;1.10;;
35612;SDS011;22054;51.646;7.078;2023-10-08T05:42:05;1.27;;;1.27;;
35612;SDS011;22054;51.646;7.078;2023-10-08T05:44:52;1.20;;;1.20;;
35612;SDS011;22054;51.646;7.078;2023-10-08T05:47:50;1.63;;;1.63;;
35612;SDS011;22054;51.646;7.078;2023-10-08T05:50:34;1.88;;;1.83;;
35612;SDS011;22054;51.646;7.078;2023-10-08T05:53:20;0.85;;;0.85;;
35612;SDS011;22054;51.646;7.078;2023-10-08T05:56:03;1.83;;;1.80;;
35612;SDS011;22054;51.646;7.078;2023-10-08T05:58:41;1.40;;;1.40;;
35612;SDS011;22054;51.646;7.078;2023-10-08T06:01:25;1.40;;;1.40;;
35612;SDS011;22054;51.646;7.078;2023-10-08T06:04:04;1.50;;;1.50;;
35612;SDS011;22054;51.646;7.078;2023-10-08T06:06:50;1.48;;;1.48;;
35612;SDS011;22054;51.646;7.078;2023-10-08T06:09:36;1.70;;;1.70;;
35612;SDS011;22054;51.646;7.078;2023-10-08T06:12:04;1.30;;;1.30;;
35612;SDS011;22054;51.646;7.078;2023-10-08T06:14:36;0.70;;;0.70;;
35612;SDS011;22054;51.646;7.078;2023-10-08T06:17:20;1.60;;;1.60;;
35612;SDS011;22054;51.646;7.078;2023-10-08T06:19:59;1.30;;;1.30;;
35612;SDS011;22054;51.646;7.078;2023-10-08T06:22:34;1.20;;;1.20;;
35612;SDS011;22054;51.646;7.078;2023-10-08T06:25:01;1.15;;;1.15;;
35612;SDS011;22054;51.646;7.078;2023-10-08T06:27:42;1.10;;;1.10;;
35612;SDS011;22054;51.646;7.078;2023-10-08T06:30:10;1.80;;;1.80;;
35612;SDS011;22054;51.646;7.078;2023-10-08T06:32:42;0.98;;;0.98;;
35612;SDS011;22054;51.646;7.078;2023-10-08T06:35:11;1.05;;;1.05;;
35612;SDS011;22054;51.646;7.078;2023-10-08T06:37:43;0.70;;;0.70;;
35612;SDS011;22054;51.646;7.078;2023-10-08T06:40:19;0.93;;;0.93;;
35612;SDS011;22054;51.646;7.078;2023-10-08T06:43:01;0.80;;;0.80;;
35612;SDS011;22054;51.646;7.078;2023-10-08T06:45:42;0.90;;;0.90;;
35612;SDS011;22054;51.646;7.078;2023-10-08T06:48:10;0.88;;;0.88;;
35612;SDS011;22054;51.646;7.078;2023-10-08T06:50:43;1.10;;;1.10;;
35612;SDS011;22054;51.646;7.078;2023-10-08T06:53:13;1.50;;;1.50;;
35612;SDS011;22054;51.646;7.078;2023-10-08T06:55:40;1.88;;;1.88;;
35612;SDS011;22054;51.646;7.078;2023-10-08T06:58:07;11.43;;;10.52;;
35612;SDS011;22054;51.646;7.078;2023-10-08T07:00:39;2.15;;;2.05;;
35612;SDS011;22054;51.646;7.078;2023-10-08T07:03:13;2.30;;;2.20;;
35612;SDS011;22054;51.646;7.078;2023-10-08T07:05:47;2.95;;;2.85;;
35612;SDS011;22054;51.646;7.078;2023-10-08T07:08:24;2.47;;;2.38;;
35612;SDS011;22054;51.646;7.078;2023-10-08T07:10:54;2.10;;;2.00;;
35612;SDS011;22054;51.646;7.078;2023-10-08T07:13:21;2.90;;;2.80;;
35612;SDS011;22054;51.646;7.078;2023-10-08T07:15:57;1.92;;;1.83;;
35612;SDS011;22054;51.646;7.078;2023-10-08T07:18:23;1.92;;;1.83;;
35612;SDS011;22054;51.646;7.078;2023-10-08T07:20:53;1.70;;;1.70;;
35612;SDS011;22054;51.646;7.078;2023-10-08T07:23:22;1.90;;;1.80;;
35612;SDS011;22054;51.646;7.078;2023-10-08T07:25:55;1.98;;;1.88;;
35612;SDS011;22054;51.646;7.078;2023-10-08T07:28:43;1.90;;;1.80;;
35612;SDS011;22054;51.646;7.078;2023-10-08T07:33:46;1.77;;;1.77;;
35612;SDS011;22054;51.646;7.078;2023-10-08T07:39:01;3.00;;;2.90;;
35612;SDS011;22054;51.646;7.078;2023-10-08T07:41:32;2.92;;;2.83;;
35612;SDS011;22054;51.646;7.078;2023-10-08T07:43:58;2.30;;;2.20;;
35612;SDS011;22054;51.646;7.078;2023-10-08T07:46:25;3.30;;;3.20;;
35612;SDS011;22054;51.646;7.078;2023-10-08T07:48:52;2.97;;;2.88;;
35612;SDS011;22054;51.646;7.078;2023-10-08T07:51:23;2.85;;;2.75;;
35612;SDS011;22054;51.646;7.078;2023-10-08T07:53:49;3.05;;;2.95;;
35612;SDS011;22054;51.646;7.078;2023-10-08T07:56:21;2.53;;;2.42;;
35612;SDS011;22054;51.646;7.078;2023-10-08T07:58:52;3.30;;;3.20;;
35612;SDS011;22054;51.646;7.078;2023-10-08T08:01:22;2.10;;;2.00;;
35612;SDS011;22054;51.646;7.078;2023-10-08T08:03:50;2.70;;;2.60;;
35612;SDS011;22054;51.646;7.078;2023-10-08T08:06:16;3.25;;;3.15;;
35612;SDS011;22054;51.646;7.078;2023-10-08T08:08:42;3.00;;;2.90;;
35612;SDS011;22054;51.646;7.078;2023-10-08T08:11:09;3.28;;;3.17;;
35612;SDS011;22054;51.646;7.078;2023-10-08T08:13:42;2.70;;;2.60;;
35612;SDS011;22054;51.646;7.078;2023-10-08T08:16:10;2.63;;;2.53;;
35612;SDS011;22054;51.646;7.078;2023-10-08T08:18:47;2.70;;;2.60;;
35612;SDS011;22054;51.646;7.078;2023-10-08T08:21:19;3.08;;;2.97;;
35612;SDS011;22054;51.646;7.078;2023-10-08T08:23:48;3.00;;;2.90;;
35612;SDS011;22054;51.646;7.078;2023-10-08T08:26:15;3.00;;;2.90;;
35612;SDS011;22054;51.646;7.078;2023-10-08T08:29:08;3.30;;;3.20;;
35612;SDS011;22054;51.646;7.078;2023-10-08T08:31:34;2.70;;;2.60;;
35612;SDS011;22054;51.646;7.078;2023-10-08T08:34:01;2.65;;;2.55;;
35612;SDS011;22054;51.646;7.078;2023-10-08T08:36:33;2.67;;;2.58;;
35612;SDS011;22054;51.646;7.078;2023-10-08T08:41:44;2.60;;;2.50;;
35612;SDS011;22054;51.646;7.078;2023-10-08T08:44:09;2.67;;;2.58;;
35612;SDS011;22054;51.646;7.078;2023-10-08T08:46:36;2.75;;;2.65;;
35612;SDS011;22054;51.646;7.078;2023-10-08T08:49:06;2.80;;;2.70;;
35612;SDS011;22054;51.646;7.078;2023-10-08T08:51:36;2.63;;;2.53;;
35612;SDS011;22054;51.646;7.078;2023-10-08T08:54:03;2.88;;;2.78;;
35612;SDS011;22054;51.646;7.078;2023-10-08T08:56:37;3.15;;;3.05;;
35612;SDS011;22054;51.646;7.078;2023-10-08T08:59:08;2.53;;;2.42;;
35612;SDS011;22054;51.646;7.078;2023-10-08T09:01:45;2.70;;;2.60;;
35612;SDS011;22054;51.646;7.078;2023-10-08T09:04:12;2.80;;;2.70;;
35612;SDS011;22054;51.646;7.078;2023-10-08T09:06:48;2.80;;;2.70;;
35612;SDS011;22054;51.646;7.078;2023-10-08T09:09:14;2.60;;;2.50;;
35612;SDS011;22054;51.646;7.078;2023-10-08T09:11:49;2.60;;;2.50;;
35612;SDS011;22054;51.646;7.078;2023-10-08T09:14:20;3.20;;;3.10;;
35612;SDS011;22054;51.646;7.078;2023-10-08T09:16:48;2.50;;;2.40;;
35612;SDS011;22054;51.646;7.078;2023-10-08T09:19:15;2.92;;;2.83;;
35612;SDS011;22054;51.646;7.078;2023-10-08T09:22:05;2.50;;;2.40;;
35612;SDS011;22054;51.646;7.078;2023-10-08T09:24:35;2.60;;;2.50;;
35612;SDS011;22054;51.646;7.078;2023-10-08T09:27:03;2.80;;;2.70;;
35612;SDS011;22054;51.646;7.078;2023-10-08T09:29:31;3.00;;;2.90;;
35612;SDS011;22054;51.646;7.078;2023-10-08T09:31:58;2.80;;;2.70;;
35612;SDS011;22054;51.646;7.078;2023-10-08T09:34:31;2.90;;;2.80;;
35612;SDS011;22054;51.646;7.078;2023-10-08T09:37:14;3.60;;;3.50;;
35612;SDS011;22054;51.646;7.078;2023-10-08T09:39:39;2.95;;;2.85;;
35612;SDS011;22054;51.646;7.078;2023-10-08T09:42:07;2.90;;;2.80;;
35612;SDS011;22054;51.646;7.078;2023-10-08T09:44:39;2.65;;;2.55;;
35612;SDS011;22054;51.646;7.078;2023-10-08T09:47:15;2.70;;;2.60;;
35612;SDS011;22054;51.646;7.078;2023-10-08T09:52:36;2.15;;;2.05;;
35612;SDS011;22054;51.646;7.078;2023-10-08T09:55:15;2.20;;;2.10;;
35612;SDS011;22054;51.646;7.078;2023-10-08T09:57:43;2.60;;;2.50;;
35612;SDS011;22054;51.646;7.078;2023-10-08T10:00:09;2.10;;;2.00;;
35612;SDS011;22054;51.646;7.078;2023-10-08T10:02:41;2.00;;;1.90;;
35612;SDS011;22054;51.646;7.078;2023-10-08T10:05:13;1.75;;;1.75;;
35612;SDS011;22054;51.646;7.078;2023-10-08T10:07:47;2.20;;;2.10;;
35612;SDS011;22054;51.646;7.078;2023-10-08T10:10:26;2.05;;;1.95;;
35612;SDS011;22054;51.646;7.078;2023-10-08T10:12:52;2.15;;;2.05;;
35612;SDS011;22054;51.646;7.078;2023-10-08T10:15:23;2.35;;;2.25;;
35612;SDS011;22054;51.646;7.078;2023-10-08T10:17:48;1.80;;;1.80;;
35612;SDS011;22054;51.646;7.078;2023-10-08T10:20:14;2.08;;;1.98;;
35612;SDS011;22054;51.646;7.078;2023-10-08T10:22:41;2.13;;;2.03;;
35612;SDS011;22054;51.646;7.078;2023-10-08T10:25:08;1.80;;;1.80;;
35612;SDS011;22054;51.646;7.078;2023-10-08T10:30:23;1.70;;;1.70;;
35612;SDS011;22054;51.646;7.078;2023-10-08T10:32:53;2.05;;;1.95;;
35612;SDS011;22054;51.646;7.078;2023-10-08T10:35:20;2.30;;;2.20;;
35612;SDS011;22054;51.646;7.078;2023-10-08T10:37:49;2.00;;;1.90;;
35612;SDS011;22054;51.646;7.078;2023-10-08T10:43:23;1.63;;;1.63;;
35612;SDS011;22054;51.646;7.078;2023-10-08T10:49:05;1.95;;;1.88;;
35612;SDS011;22054;51.646;7.078;2023-10-08T10:51:43;1.88;;;1.80;;
35612;SDS011;22054;51.646;7.078;2023-10-08T10:54:11;1.60;;;1.60;;
35612;SDS011;22054;51.646;7.078;2023-10-08T10:56:45;1.65;;;1.65;;
35612;SDS011;22054;51.646;7.078;2023-10-08T10:59:13;1.70;;;1.70;;
35612;SDS011;22054;51.646;7.078;2023-10-08T11:01:48;1.90;;;1.85;;
35612;SDS011;22054;51.646;7.078;2023-10-08T11:06:47;1.70;;;1.70;;
35612;SDS011;22054;51.646;7.078;2023-10-08T11:09:16;1.60;;;1.60;;
35612;SDS011;22054;51.646;7.078;2023-10-08T11:11:56;2.20;;;2.10;;
35612;SDS011;22054;51.646;7.078;2023-10-08T11:14:28;1.80;;;1.80;;
35612;SDS011;22054;51.646;7.078;2023-10-08T11:16:54;1.90;;;1.80;;
35612;SDS011;22054;51.646;7.078;2023-10-08T11:19:22;2.20;;;2.10;;
35612;SDS011;22054;51.646;7.078;2023-10-08T11:21:51;2.53;;;2.42;;
35612;SDS011;22054;51.646;7.078;2023-10-08T11:24:31;2.60;;;2.50;;
35612;SDS011;22054;51.646;7.078;2023-10-08T11:27:01;2.65;;;2.55;;
35612;SDS011;22054;51.646;7.078;2023-10-08T11:29:50;2.55;;;2.45;;
35612;SDS011;22054;51.646;7.078;2023-10-08T11:32:22;1.80;;;1.80;;
35612;SDS011;22054;51.646;7.078;2023-10-08T11:34:57;1.50;;;1.50;;
35612;SDS011;22054;51.646;7.078;2023-10-08T11:37:44;1.60;;;1.60;;
35612;SDS011;22054;51.646;7.078;2023-10-08T11:40:24;1.85;;;1.80;;
35612;SDS011;22054;51.646;7.078;2023-10-08T11:42:54;1.60;;;1.60;;
35612;SDS011;22054;51.646;7.078;2023-10-08T11:45:23;2.38;;;2.28;;
35612;SDS011;22054;51.646;7.078;2023-10-08T11:47:51;2.20;;;2.10;;
35612;SDS011;22054;51.646;7.078;2023-10-08T11:50:26;2.20;;;2.10;;
35612;SDS011;22054;51.646;7.078;2023-10-08T11:52:57;2.33;;;2.22;;
35612;SDS011;22054;51.646;7.078;2023-10-08T11:55:34;2.60;;;2.50;;
35612;SDS011;22054;51.646;7.078;2023-10-08T11:58:02;2.35;;;2.25;;
35612;SDS011;22054;51.646;7.078;2023-10-08T12:00:44;2.10;;;2.00;;
35612;SDS011;22054;51.646;7.078;2023-10-08T12:03:10;2.30;;;2.20;;
35612;SDS011;22054;51.646;7.078;2023-10-08T12:05:38;2.70;;;2.60;;
35612;SDS011;22054;51.646;7.078;2023-10-08T12:08:17;2.40;;;2.30;;
35612;SDS011;22054;51.646;7.078;2023-10-08T12:10:47;2.30;;;2.20;;
35612;SDS011;22054;51.646;7.078;2023-10-08T12:13:19;2.10;;;2.00;;
35612;SDS011;22054;51.646;7.078;2023-10-08T12:15:54;2.10;;;2.00;;
35612;SDS011;22054;51.646;7.078;2023-10-08T12:18:31;1.92;;;1.90;;
35612;SDS011;22054;51.646;7.078;2023-10-08T12:21:04;2.20;;;2.10;;
35612;SDS011;22054;51.646;7.078;2023-10-08T12:23:36;2.20;;;2.10;;
35612;SDS011;22054;51.646;7.078;2023-10-08T12:26:06;2.00;;;1.90;;
35612;SDS011;22054;51.646;7.078;2023-10-08T12:28:36;1.85;;;1.80;;
35612;SDS011;22054;51.646;7.078;2023-10-08T12:31:02;2.00;;;1.90;;
35612;SDS011;22054;51.646;7.078;2023-10-08T12:33:29;2.20;;;2.10;;
35612;SDS011;22054;51.646;7.078;2023-10-08T12:35:56;2.40;;;2.30;;
35612;SDS011;22054;51.646;7.078;2023-10-08T12:38:22;2.10;;;2.00;;
35612;SDS011;22054;51.646;7.078;2023-10-08T12:40:52;2.30;;;2.20;;
35612;SDS011;22054;51.646;7.078;2023-10-08T12:43:20;2.38;;;2.28;;
35612;SDS011;22054;51.646;7.078;2023-10-08T12:45:47;2.40;;;2.30;;
35612;SDS011;22054;51.646;7.078;2023-10-08T12:50:51;2.22;;;2.13;;
35612;SDS011;22054;51.646;7.078;2023-10-08T12:53:23;2.00;;;1.90;;
35612;SDS011;22054;51.646;7.078;2023-10-08T12:56:07;1.50;;;1.50;;
35612;SDS011;22054;51.646;7.078;2023-10-08T12:58:40;1.60;;;1.60;;
35612;SDS011;22054;51.646;7.078;2023-10-08T13:01:12;1.70;;;1.70;;
35612;SDS011;22054;51.646;7.078;2023-10-08T13:06:09;1.73;;;1.73;;
35612;SDS011;22054;51.646;7.078;2023-10-08T13:11:20;1.50;;;1.50;;
35612;SDS011;22054;51.646;7.078;2023-10-08T13:13:51;1.70;;;1.70;;
35612;SDS011;22054;51.646;7.078;2023-10-08T13:16:26;1.70;;;1.70;;
35612;SDS011;22054;51.646;7.078;2023-10-08T13:19:02;1.70;;;1.70;;
35612;SDS011;22054;51.646;7.078;2023-10-08T13:21:28;1.75;;;1.75;;
35612;SDS011;22054;51.646;7.078;2023-10-08T13:23:56;1.70;;;1.70;;
35612;SDS011;22054;51.646;7.078;2023-10-08T13:26:24;1.63;;;1.63;;
35612;SDS011;22054;51.646;7.078;2023-10-08T13:28:53;1.70;;;1.70;;
35612;SDS011;22054;51.646;7.078;2023-10-08T13:31:19;1.83;;;1.80;;
35612;SDS011;22054;51.646;7.078;2023-10-08T13:33:46;1.70;;;1.70;;
35612;SDS011;22054;51.646;7.078;2023-10-08T13:36:17;1.90;;;1.80;;
35612;SDS011;22054;51.646;7.078;2023-10-08T13:38:43;1.77;;;1.77;;
35612;SDS011;22054;51.646;7.078;2023-10-08T13:41:12;1.58;;;1.58;;
35612;SDS011;22054;51.646;7.078;2023-10-08T13:43:46;1.70;;;1.70;;
35612;SDS011;22054;51.646;7.078;2023-10-08T13:46:17;1.75;;;1.75;;
35612;SDS011;22054;51.646;7.078;2023-10-08T13:48:47;1.88;;;1.83;;
35612;SDS011;22054;51.646;7.078;2023-10-08T13:51:22;1.98;;;1.90;;
35612;SDS011;22054;51.646;7.078;2023-10-08T13:56:24;1.70;;;1.70;;
35612;SDS011;22054;51.646;7.078;2023-10-08T13:58:52;1.58;;;1.58;;
35612;SDS011;22054;51.646;7.078;2023-10-08T14:01:28;1.75;;;1.75;;
35612;SDS011;22054;51.646;7.078;2023-10-08T14:04:00;2.00;;;1.90;;
35612;SDS011;22054;51.646;7.078;2023-10-08T14:06:34;2.22;;;2.13;;
35612;SDS011;22054;51.646;7.078;2023-10-08T14:09:02;2.15;;;2.05;;
35612;SDS011;22054;51.646;7.078;2023-10-08T14:11:37;2.03;;;1.92;;
35612;SDS011;22054;51.646;7.078;2023-10-08T14:14:03;2.13;;;2.03;;
35612;SDS011;22054;51.646;7.078;2023-10-08T14:16:39;1.70;;;1.70;;
35612;SDS011;22054;51.646;7.078;2023-10-08T14:19:11;1.92;;;1.83;;
35612;SDS011;22054;51.646;7.078;2023-10-08T14:21:40;2.00;;;1.90;;
35612;SDS011;22054;51.646;7.078;2023-10-08T14:24:25;1.60;;;1.60;;
35612;SDS011;22054;51.646;7.078;2023-10-08T14:26:54;1.88;;;1.80;;
35612;SDS011;22054;51.646;7.078;2023-10-08T14:29:22;1.98;;;1.88;;
35612;SDS011;22054;51.646;7.078;2023-10-08T14:31:52;1.50;;;1.50;;
35612;SDS011;22054;51.646;7.078;2023-10-08T14:34:21;1.50;;;1.50;;
35612;SDS011;22054;51.646;7.078;2023-10-08T14:37:07;1.55;;;1.55;;
35612;SDS011;22054;51.646;7.078;2023-10-08T14:39:52;1.55;;;1.55;;
35612;SDS011;22054;51.646;7.078;2023-10-08T14:42:36;1.70;;;1.70;;
35612;SDS011;22054;51.646;7.078;2023-10-08T14:45:20;1.90;;;1.80;;
35612;SDS011;22054;51.646;7.078;2023-10-08T14:47:51;1.70;;;1.70;;
35612;SDS011;22054;51.646;7.078;2023-10-08T14:50:21;1.60;;;1.60;;
35612;SDS011;22054;51.646;7.078;2023-10-08T14:52:48;1.70;;;1.70;;
35612;SDS011;22054;51.646;7.078;2023-10-08T14:55:15;2.20;;;2.10;;
35612;SDS011;22054;51.646;7.078;2023-10-08T14:57:41;2.13;;;2.03;;
35612;SDS011;22054;51.646;7.078;2023-10-08T15:00:07;1.77;;;1.77;;
35612;SDS011;22054;51.646;7.078;2023-10-08T15:02:35;1.80;;;1.80;;
35612;SDS011;22054;51.646;7.078;2023-10-08T15:05:03;1.92;;;1.83;;
35612;SDS011;22054;51.646;7.078;2023-10-08T15:07:30;2.05;;;1.95;;
35612;SDS011;22054;51.646;7.078;2023-10-08T15:09:57;1.80;;;1.80;;
35612;SDS011;22054;51.646;7.078;2023-10-08T15:12:25;1.70;;;1.70;;
35612;SDS011;22054;51.646;7.078;2023-10-08T15:14:52;1.60;;;1.60;;
35612;SDS011;22054;51.646;7.078;2023-10-08T15:17:18;1.77;;;1.77;;
35612;SDS011;22054;51.646;7.078;2023-10-08T15:19:44;2.03;;;1.92;;
35612;SDS011;22054;51.646;7.078;2023-10-08T15:22:13;1.90;;;1.80;;
35612;SDS011;22054;51.646;7.078;2023-10-08T15:24:39;1.70;;;1.70;;
35612;SDS011;22054;51.646;7.078;2023-10-08T15:27:05;1.83;;;1.80;;
35612;SDS011;22054;51.646;7.078;2023-10-08T15:29:31;1.70;;;1.70;;
35612;SDS011;22054;51.646;7.078;2023-10-08T15:31:58;1.65;;;1.65;;
35612;SDS011;22054;51.646;7.078;2023-10-08T15:34:24;2.10;;;2.00;;
35612;SDS011;22054;51.646;7.078;2023-10-08T15:36:51;1.70;;;1.70;;
35612;SDS011;22054;51.646;7.078;2023-10-08T15:39:18;1.50;;;1.50;;
35612;SDS011;22054;51.646;7.078;2023-10-08T15:41:51;1.80;;;1.80;;
35612;SDS011;22054;51.646;7.078;2023-10-08T15:44:17;1.70;;;1.70;;
35612;SDS011;22054;51.646;7.078;2023-10-08T15:46:46;1.65;;;1.65;;
35612;SDS011;22054;51.646;7.078;2023-10-08T15:49:13;1.60;;;1.60;;